Terminal Aerodrome Forecast
Issued by NWS

Current Version | Previous Version | Text Only | Print | Product List | Glossary Off
Versions: 1 2 3 4 5 6 7 8 9 10 11 12 13 14 15 16 17 18 19 20 21 22 23

000
FTUS41 KRLX 241500 AAA
TAFCKB
TAF AMD
KCKB 241514Z 2415/2512 19004KT P6SM FEW200
     FM241800 22008KT P6SM SCT150
     FM250300 24010G16KT P6SM BKN035
     FM250800 25010G16KT 3SM -SHSN OVC025=

USA.gov is the U.S. government's official web portal to all federal, state and local government web resources and services.